Time;durP1;ratioP1;P1;durP2;ratioP2;P2;SDS_P1;SDS_P2;PMS_P1;PMS_P2;Temp;Humidity;BMP_temperature;BMP_pressure;BME280_temperature;BME280_humidity;BME280_pressure;Samples;Min_cycle;Max_cycle;Signal;HPM_P1;HPM_P2
2024/04/26 00:04:42;;;;;;;;;;;;;;;;;;;;;
2024/04/26 00:08:37;;;;;;;;;;;;;;;;;;;;;
2024/04/26 00:12:41;;;;;;;28.50;16.90;;;;;;;1.27;77.65;99569.89;127887;1281;114845;-61
2024/04/26 00:20:37;;;;;;;;;;;;;;;;;;;;;
2024/04/26 00:24:38;;;;;;;25.20;15.10;;;;;;;1.18;77.74;99567.80;125409;1320;115189;-60
2024/04/26 00:28:15;;;;;;;;;;;;;;;1.15;77.77;99570.52;124826;1325;114926;-60
2024/04/26 00:32:11;;;;;;;27.10;15.70;;;;;;;1.12;77.74;99575.34;124477;1325;129611;-60
2024/04/26 00:35:55;;;;;;;;;;;;;;;;;;;;;
2024/04/26 00:40:09;;;;;;;32.20;19.00;;;;;;;1.08;78.22;99578.22;126016;1308;636215;-62
2024/04/26 00:44:11;;;;;;;31.50;18.70;;;;;;;1.06;78.09;99579.69;127958;1280;128412;-61
2024/04/26 00:48:19;;;;;;;33.60;19.10;;;;;;;1.04;78.35;99582.88;127348;1284;115324;-62
2024/04/26 00:52:27;;;;;;;27.60;18.10;;;;;;;1.02;78.50;99588.73;122109;1302;5419240;-59
2024/04/26 00:56:20;;;;;;;30.70;19.20;;;;;;;1.00;78.12;99593.89;125102;1315;114985;-60
2024/04/26 01:00:20;;;;;;;;;;;;;;;;;;;;;
2024/04/26 01:04:22;;;;;;;27.10;16.70;;;;;;;0.94;78.66;99598.92;124944;1308;129861;-61
2024/04/26 01:08:06;;;;;;;;;;;;;;;;;;;;;
2024/04/26 01:12:26;;;;;;;;;;;;;;;;;;;;;
2024/04/26 01:16:28;;;;;;;30.90;17.80;;;;;;;0.86;78.90;99592.59;127823;1283;128675;-61
2024/04/26 01:20:35;;;;;;;31.00;18.00;;;;;;;0.84;78.58;99598.27;126775;1286;114905;-62
2024/04/26 01:24:33;;;;;;;;;;;;;;;;;;;;;
2024/04/26 01:28:18;;;;;;;25.20;15.30;;;;;;;0.77;78.55;99606.33;125451;1316;115141;-60
2024/04/26 01:32:20;;;;;;;28.70;15.40;;;;;;;0.73;78.66;99613.42;125189;1322;114945;-60
2024/04/26 01:36:16;;;;;;;;;;;;;;;;;;;;;
2024/04/26 01:44:30;;;;;;;;;;;;;;;;;;;;;
2024/04/26 01:56:38;;;;;;;27.90;15.20;;;;;;;0.50;78.97;99620.05;122011;1296;5402403;-59
2024/04/26 02:00:38;;;;;;;31.10;16.90;;;;;;;0.47;78.85;99620.27;124806;1315;115393;-60
2024/04/26 02:04:37;;;;;;;;;;;;;;;;;;;;;
2024/04/26 02:12:54;;;;;;;;;;;;;;;;;;;;;
2024/04/26 02:16:50;;;;;;;;;;;;;;;;;;;;;
2024/04/26 02:20:47;;;;;;;24.30;14.10;;;;;;;0.42;79.76;99628.95;126153;1294;116404;-60
2024/04/26 02:33:12;;;;;;;28.10;16.00;;;;;;;0.39;79.35;99636.58;126221;1295;639243;-61
2024/04/26 02:37:15;;;;;;;27.00;15.90;;;;;;;0.34;79.27;99635.98;127728;1279;128903;-61
2024/04/26 02:41:16;;;;;;;;;;;;;;;;;;;;;
2024/04/26 02:45:18;;;;;;;23.60;14.90;;;;;;;0.28;79.74;99631.52;121137;1305;5416888;-60
2024/04/26 02:49:09;;;;;;;26.30;15.30;;;;;;;0.26;79.52;99636.63;124805;1328;115217;-60
2024/04/26 02:52:58;;;;;;;27.60;15.10;;;;;;;0.24;79.63;99637.56;123873;1316;115016;-60
2024/04/26 02:56:42;;;;;;;21.50;13.70;;;;;;;0.22;79.67;99641.81;123455;1320;114927;-60
2024/04/26 03:01:03;;;;;;;25.80;13.70;;;;;;;0.21;79.46;99644.27;126229;1295;637180;-61
2024/04/26 03:04:47;;;;;;;;;;;;;;;;;;;;;
2024/04/26 03:12:47;;;;;;;22.30;15.10;;;;;;;0.11;79.72;99656.20;127559;1295;5470373;-62
2024/04/26 03:16:52;;;;;;;23.90;13.20;;;;;;;0.09;79.83;99659.59;127369;1282;114929;-60
2024/04/26 03:20:59;;;;;;;25.60;13.30;;;;;;;0.06;79.77;99660.52;126381;1296;128701;-61
2024/04/26 03:24:56;;;;;;;22.80;14.20;;;;;;;0.04;79.77;99661.95;126073;1299;115890;-60
2024/04/26 03:28:59;;;;;;;24.10;13.10;;;;;;;0.04;79.88;99660.39;125540;1321;114908;-60
2024/04/26 03:32:59;;;;;;;;;;;;;;;;;;;;;
2024/04/26 03:37:11;;;;;;;;;;;;;;;;;;;;;
2024/04/26 03:41:12;;;;;;;;;;;;;;;;;;;;;
2024/04/26 03:45:16;;;;;;;23.80;12.20;;;;;;;0.06;80.08;99661.23;127695;1302;114953;-62
2024/04/26 03:49:13;;;;;;;19.80;11.40;;;;;;;0.08;80.36;99663.11;122210;1298;5473031;-61
2024/04/26 03:53:07;;;;;;;19.90;12.00;;;;;;;0.13;80.75;99668.29;125122;1325;114984;-60
2024/04/26 03:57:08;;;;;;;18.90;10.70;;;;;;;0.19;80.63;99669.60;124544;1325;114850;-62
2024/04/26 04:05:27;;;;;;;;;;;;;;;;;;;;;
2024/04/26 04:09:31;;;;;;;16.40;10.80;;;;;;;0.39;81.36;99678.38;127426;1298;129739;-63
2024/04/26 04:13:28;;;;;;;;;;;;;;;;;;;;;
2024/04/26 04:17:23;;;;;;;21.00;12.20;;;;;;;0.57;81.59;99689.83;122038;1314;5395850;-62
2024/04/26 04:21:12;;;;;;;14.00;8.30;;;;;;;0.66;81.59;99681.39;125275;1323;115214;-61
2024/04/26 04:25:05;;;;;;;;;;;;;;;;;;;;;
2024/04/26 04:28:40;;;;;;;;;;;;;;;0.87;81.78;99683.12;123789;1336;114909;-61
2024/04/26 04:32:23;;;;;;;;;;;;;;;;;;;;;
2024/04/26 04:40:37;;;;;;;20.90;13.30;;;;;;;1.22;81.87;99673.95;126349;1295;635933;-63
2024/04/26 04:44:21;;;;;;;20.10;12.30;;;;;;;1.39;81.96;99674.98;128768;1275;128087;-62
2024/04/26 04:48:16;;;;;;;16.70;10.30;;;;;;;2.01;82.60;99673.05;127703;1300;114882;-62
2024/04/26 04:52:43;;;;;;;15.00;9.00;;;;;;;3.07;82.99;99678.67;127503;1284;115244;-60
2024/04/26 04:56:20;;;;;;;17.60;9.60;;;;;;;4.30;82.74;99681.92;122148;1296;114955;-62
2024/04/26 05:04:13;;;;;;;13.00;9.40;;;;;;;6.82;81.20;99669.60;125914;1308;636062;-62
2024/04/26 05:07:38;;;;;;;12.00;7.50;;;;;;;7.82;79.32;99670.14;128876;1274;128161;-62
2024/04/26 05:11:27;;;;;;;10.60;7.70;;;;;;;8.75;78.22;99669.25;127910;1298;114847;-62
2024/04/26 05:15:30;;;;;;;10.30;5.90;;;;;;;9.82;77.07;99669.39;127332;1287;114851;-62
2024/04/26 05:19:36;;;;;;;12.10;5.50;;;;;;;11.06;75.83;99666.59;122658;1293;114944;-63
2024/04/26 05:23:44;;;;;;;8.00;5.60;;;;;;;12.13;73.66;99663.38;125924;1309;115208;-63
2024/04/26 05:27:46;;;;;;;8.50;5.60;;;;;;;13.02;72.15;99665.08;125260;1321;115074;-63
2024/04/26 05:31:48;;;;;;;3.80;2.90;;;;;;;13.77;70.14;99669.15;124738;1311;128727;-63
2024/04/26 05:35:32;;;;;;;;;;;;;;;;;;;;;
2024/04/26 05:39:12;;;;;;;;;;;;;;;;;;;;;
2024/04/26 05:51:30;;;;;;;5.90;4.30;;;;;;;12.54;64.48;99679.12;128367;1297;128333;-62
2024/04/26 05:55:24;;;;;;;;;;;;;;;;;;;;;
2024/04/26 05:59:19;;;;;;;6.50;4.20;;;;;;;12.54;64.20;99677.31;122563;1298;5577596;-63
2024/04/26 06:02:56;;;;;;;5.00;4.20;;;;;;;13.06;64.26;99677.69;125373;1323;114929;-62
2024/04/26 06:06:52;;;;;;;;;;;;;;;;;;;;;
2024/04/26 06:10:42;;;;;;;4.30;2.80;;;;;;;14.04;62.30;99673.05;124807;1309;129637;-62
2024/04/26 06:18:58;;;;;;;;;;;;;;;;;;;;;
2024/04/26 06:22:48;;;;;;;6.70;4.00;;;;;;;16.35;61.41;99675.93;128066;1277;128971;-63
2024/04/26 06:26:51;;;;;;;4.60;3.40;;;;;;;17.10;59.80;99677.32;127860;1277;114834;-63
2024/04/26 06:30:50;;;;;;;;;;;;;;;;;;;;;
2024/04/26 06:34:49;;;;;;;4.10;2.90;;;;;;;17.78;57.47;99682.23;126242;1314;114955;-64
2024/04/26 06:38:43;;;;;;;5.50;2.50;;;;;;;18.04;56.70;99680.09;125607;1302;129631;-65
2024/04/26 06:46:53;;;;;;;;;;;;;;;;;;;;;
2024/04/26 06:50:49;;;;;;;3.80;2.00;;;;;;;18.79;53.88;99680.84;129005;1278;128547;-63
2024/04/26 06:54:53;;;;;;;3.50;2.50;;;;;;;19.02;52.93;99684.98;128277;1283;114871;-64
2024/04/26 06:58:58;;;;;;;;;;;;;;;;;;;;;
2024/04/26 07:02:47;;;;;;;;;;;;;;;;;;;;;
2024/04/26 07:06:50;;;;;;;3.10;1.90;;;;;;;19.03;50.12;99691.79;125791;1309;129711;-64
2024/04/26 07:10:50;;;;;;;3.60;2.40;;;;;;;18.96;49.54;99687.73;124800;1311;114918;-63
2024/04/26 07:19:12;;;;;;;3.50;2.30;;;;;;;19.29;48.25;99686.40;126089;1299;636069;-64
2024/04/26 07:23:16;;;;;;;2.40;1.80;;;;;;;19.53;47.33;99682.68;127182;1286;127850;-64
2024/04/26 07:27:19;;;;;;;2.80;1.50;;;;;;;19.65;47.12;99684.84;126439;1307;114985;-63
2024/04/26 07:31:20;;;;;;;2.80;1.90;;;;;;;19.88;46.78;99687.67;121706;1317;5760040;-64
2024/04/26 07:35:14;;;;;;;5.00;1.90;;;;;;;20.32;45.88;99685.65;123754;1334;114980;-64
2024/04/26 07:39:13;;;;;;;;;;;;;;;;;;;;;
2024/04/26 07:47:27;;;;;;;;;;;;;;;;;;;;;
2024/04/26 07:50:50;;;;;;;3.40;1.00;;;;;;;21.87;41.77;99677.25;127730;1281;128705;-63
2024/04/26 07:54:55;;;;;;;2.90;1.60;;;;;;;21.90;41.39;99679.73;127595;1291;115110;-63
2024/04/26 07:59:18;;;;;;;3.10;1.50;;;;;;;22.17;41.44;99676.81;126226;1294;114960;-64
2024/04/26 08:02:47;;;;;;;;;;;;;;;;;;;;;
2024/04/26 08:06:35;;;;;;;3.10;1.60;;;;;;;22.70;39.69;99674.01;124773;1327;114885;-64
2024/04/26 08:14:56;;;;;;;3.30;1.90;;;;;;;23.03;38.75;99669.50;125892;1308;636128;-64
2024/04/26 08:18:52;;;;;;;1.90;1.40;;;;;;;23.22;38.41;99669.61;128021;1299;128587;-64
2024/04/26 08:22:54;;;;;;;2.60;1.20;;;;;;;23.33;38.30;99665.75;126779;1305;114860;-64
2024/04/26 08:26:35;;;;;;;2.60;1.20;;;;;;;23.54;37.54;99666.12;122543;1293;5507656;-64
2024/04/26 08:30:36;;;;;;;;;;;;;;;;;;;;;
2024/04/26 08:34:38;;;;;;;2.20;1.00;;;;;;;23.75;35.17;99659.41;125231;1301;114811;-64
2024/04/26 08:42:54;;;;;;;3.50;1.00;;;;;;;23.51;34.60;99666.48;126426;1297;636157;-64
2024/04/26 08:46:47;;;;;;;;;;;;;;;;;;;;;
2024/04/26 08:50:47;;;;;;;2.80;1.20;;;;;;;23.40;34.27;99664.63;126958;1285;114990;-64
2024/04/26 08:54:55;;;;;;;3.30;1.20;;;;;;;23.19;34.50;99666.58;124598;1292;5421972;-63
2024/04/26 08:58:41;;;;;;;;;;;;;;;;;;;;;
2024/04/26 09:02:40;;;;;;;;;;;;;;;;;;;;;
2024/04/26 09:06:35;;;;;;;;;;;;;;;;;;;;;
2024/04/26 09:10:48;;;;;;;;;;;;;;;;;;;;;
2024/04/26 09:14:37;;;;;;;;;;;;;;;;;;;;;
2024/04/26 09:18:34;;;;;;;;;;;;;;;;;;;;;
2024/04/26 09:22:38;;;;;;;;;;;;;;;;;;;;;
2024/04/26 09:26:40;;;;;;;4.00;1.00;;;;;;;22.00;32.42;99651.20;122291;1315;114891;-64
2024/04/26 09:30:42;;;;;;;2.60;1.30;;;;;;;21.50;32.87;99652.57;125448;1304;114883;-64
2024/04/26 09:34:44;;;;;;;5.00;1.10;;;;;;;21.08;33.13;99655.16;124755;1327;114958;-63
2024/04/26 09:38:29;;;;;;;2.70;1.20;;;;;;;20.58;32.96;99660.38;123270;1331;129852;-64
2024/04/26 09:42:20;;;;;;;;;;;;;;;;;;;;;
2024/04/26 09:50:42;;;;;;;4.40;1.10;;;;;;;19.66;33.44;99652.41;126424;1296;636400;-63
2024/04/26 09:54:45;;;;;;;6.90;1.20;;;;;;;19.65;33.61;99652.94;127402;1293;129099;-64
2024/04/26 09:58:42;;;;;;;3.10;1.00;;;;;;;19.74;33.24;99646.91;126363;1297;114978;-63
2024/04/26 10:02:38;;;;;;;;;;;;;;;;;;;;;
2024/04/26 10:06:41;;;;;;;1.40;0.70;;;;;;;20.14;32.53;99651.04;124103;1327;115054;-63
2024/04/26 10:15:10;;;;;;;;;;;;;;;;;;;;;
2024/04/26 10:19:06;;;;;;;;;;;;;;;;;;;;;
2024/04/26 10:23:01;;;;;;;;;;;;;;;;;;;;;
2024/04/26 10:27:06;;;;;;;;;;;;;;;;;;;;;
2024/04/26 10:31:02;;;;;;;2.00;0.80;;;;;;;21.04;31.64;99643.73;125301;1305;115044;-64
2024/04/26 10:35:04;;;;;;;3.50;0.80;;;;;;;21.13;30.90;99642.66;124435;1327;114908;-63
2024/04/26 10:43:14;;;;;;;2.00;0.70;;;;;;;21.50;31.09;99633.45;126126;1306;637895;-64
2024/04/26 10:47:39;;;;;;;3.90;0.70;;;;;;;21.76;31.03;99629.45;128508;1276;128950;-65
2024/04/26 10:51:23;;;;;;;1.70;0.60;;;;;;;21.98;30.55;99624.74;127539;1284;114762;-64
2024/04/26 10:55:19;;;;;;;2.00;0.60;;;;;;;22.06;30.44;99627.11;123351;1303;5393477;-64
2024/04/26 10:59:53;;;;;;;1.40;0.60;;;;;;;21.96;29.69;99627.71;126723;1306;114879;-63
2024/04/26 11:03:50;;;;;;;2.50;0.70;;;;;;;21.46;29.91;99626.45;126317;1305;114887;-64
2024/04/26 11:07:46;;;;;;;;;;;;;;;;;;;;;
2024/04/26 11:11:46;;;;;;;;;;;;;;;;;;;;;
2024/04/26 11:15:20;;;;;;;;;;;;;;;;;;;;;
2024/04/26 11:19:17;;;;;;;;;;;;;;;;;;;;;
2024/04/26 11:23:38;;;;;;;3.60;1.20;;;;;;;20.55;29.20;99612.95;126413;1297;636391;-64
2024/04/26 11:27:33;;;;;;;;;;;;;;;;;;;;;
2024/04/26 11:31:26;;;;;;;;;;;;;;;;;;;;;
2024/04/26 11:35:26;;;;;;;1.60;0.80;;;;;;;19.57;29.55;99620.55;125182;1316;5385898;-64
2024/04/26 11:39:16;;;;;;;4.80;0.80;;;;;;;19.37;29.78;99618.46;125490;1319;114893;-65
2024/04/26 11:47:19;;;;;;;;;;;;;;;;;;;;;
2024/04/26 11:51:23;;;;;;;2.20;0.90;;;;;;;19.98;29.78;99613.98;128865;1273;128770;-64
2024/04/26 11:55:07;;;;;;;1.40;0.50;;;;;;;19.80;29.49;99610.69;128031;1277;114953;-65
2024/04/26 11:59:10;;;;;;;;;;;;;;;;;;;;;
2024/04/26 12:03:17;;;;;;;1.80;0.90;;;;;;;19.34;29.61;99608.66;127603;1283;114869;-63
2024/04/26 12:07:09;;;;;;;;;;;;;;;;;;;;;
2024/04/26 12:15:17;;;;;;;1.90;0.50;;;;;;;19.12;30.10;99601.86;126246;1297;636826;-63
2024/04/26 12:19:19;;;;;;;1.30;0.50;;;;;;;19.15;30.06;99601.45;128534;1273;128599;-64
2024/04/26 12:23:27;;;;;;;1.20;0.70;;;;;;;19.26;30.09;99595.25;127042;1308;114987;-64
2024/04/26 12:27:06;;;;;;;;;;;;;;;;;;;;;
2024/04/26 12:31:07;;;;;;;;;;;;;;;;;;;;;
2024/04/26 12:39:24;;;;;;;1.70;0.60;;;;;;;19.33;30.09;99597.34;125952;1297;635916;-62
2024/04/26 12:43:26;;;;;;;1.40;0.60;;;;;;;19.41;30.22;99588.55;128215;1275;127720;-65
2024/04/26 12:47:31;;;;;;;;;;;;;;;;;;;;;
2024/04/26 12:51:40;;;;;;;;;;;;;;;;;;;;;
2024/04/26 12:55:28;;;;;;;;;;;;;;;;;;;;;
2024/04/26 12:59:28;;;;;;;;;;;;;;;;;;;;;
2024/04/26 13:07:38;;;;;;;;;;;;;;;;;;;;;
2024/04/26 13:11:28;;;;;;;;;;;;;;;;;;;;;
2024/04/26 13:15:33;;;;;;;1.70;0.50;;;;;;;19.12;30.39;99575.65;127970;1277;114885;-63
2024/04/26 13:19:28;;;;;;;;;;;;;;;;;;;;;
2024/04/26 13:23:06;;;;;;;1.80;0.50;;;;;;;18.93;30.47;99567.27;122087;1308;114878;-63
2024/04/26 13:27:08;;;;;;;1.50;0.50;;;;;;;18.81;30.33;99563.25;125775;1299;114972;-64
2024/04/26 13:31:00;;;;;;;;;;;;;;;;;;;;;
2024/04/26 13:39:16;;;;;;;1.60;0.60;;;;;;;18.66;31.09;99563.14;126417;1305;636094;-64
2024/04/26 13:43:17;;;;;;;2.30;0.70;;;;;;;18.58;30.98;99563.02;127650;1285;128898;-64
2024/04/26 13:47:24;;;;;;;1.70;0.60;;;;;;;18.48;30.80;99563.96;126165;1308;114908;-64
2024/04/26 13:51:22;;;;;;;1.20;0.40;;;;;;;18.38;30.93;99554.22;121939;1298;5519312;-65
2024/04/26 13:55:23;;;;;;;1.30;0.50;;;;;;;18.36;31.31;99558.58;125652;1317;114866;-65
2024/04/26 13:59:12;;;;;;;0.90;0.30;;;;;;;18.33;31.46;99555.80;124424;1332;115026;-63
2024/04/26 14:02:54;;;;;;;;;;;;;;;;;;;;;
2024/04/26 14:06:49;;;;;;;;;;;;;;;;;;;;;
2024/04/26 14:11:09;;;;;;;3.20;0.60;;;;;;;18.05;31.71;99547.70;125941;1300;635364;-64
2024/04/26 14:15:15;;;;;;;1.00;0.60;;;;;;;17.94;31.40;99551.81;127113;1289;130360;-63
2024/04/26 14:19:18;;;;;;;1.30;0.60;;;;;;;17.68;31.27;99546.90;126475;1292;114969;-62
2024/04/26 14:23:01;;;;;;;1.20;0.90;;;;;;;17.53;31.61;99546.30;121627;1304;5483318;-63
2024/04/26 14:27:04;;;;;;;;;;;;;;;17.41;31.98;99545.54;124754;1325;115453;-63
2024/04/26 14:30:47;;;;;;;1.40;0.90;;;;;;;17.33;32.19;99548.31;124970;1325;115003;-64
2024/04/26 14:34:32;;;;;;;;;;;;;;;;;;;;;
2024/04/26 14:38:15;;;;;;;;;;;;;;;;;;;;;
2024/04/26 14:42:38;;;;;;;2.60;1.00;;;;;;;17.23;32.45;99545.16;126424;1295;635641;-65
2024/04/26 14:46:41;;;;;;;2.70;1.00;;;;;;;17.22;32.56;99547.45;127612;1283;129423;-63
2024/04/26 14:50:44;;;;;;;2.50;0.90;;;;;;;17.28;32.59;99547.98;126473;1295;115343;-63
2024/04/26 14:54:37;;;;;;;1.10;0.60;;;;;;;17.26;32.60;99548.02;121946;1301;5451574;-65
2024/04/26 14:58:38;;;;;;;2.20;0.90;;;;;;;17.26;32.80;99548.75;125779;1296;114965;-65
2024/04/26 15:02:38;;;;;;;;;;;;;;;;;;;;;
2024/04/26 15:06:32;;;;;;;;;;;;;;;;;;;;;
2024/04/26 15:10:53;;;;;;;1.90;1.00;;;;;;;17.23;33.31;99541.09;126323;1295;636343;-64
2024/04/26 15:14:53;;;;;;;;;;;;;;;;;;;;;
2024/04/26 15:18:42;;;;;;;;;;;;;;;;;;;;;
2024/04/26 15:26:32;;;;;;;;;;;;;;;;;;;;;
2024/04/26 15:30:37;;;;;;;2.40;0.70;;;;;;;17.15;33.49;99546.08;128145;1288;129923;-64
2024/04/26 15:34:15;;;;;;;;;;;;;;;;;;;;;
2024/04/26 15:38:10;;;;;;;;;;;;;;;;;;;;;
2024/04/26 15:41:55;;;;;;;3.00;1.00;;;;;;;17.06;33.68;99551.60;122973;1290;114912;-63
2024/04/26 15:45:42;;;;;;;1.40;0.90;;;;;;;17.02;33.81;99549.75;126798;1308;114905;-64
2024/04/26 15:49:16;;;;;;;1.70;1.00;;;;;;;17.00;33.75;99550.43;126187;1308;114888;-64
2024/04/26 15:53:25;;;;;;;1.90;1.00;;;;;;;17.03;33.73;99551.89;127048;1290;128025;-64
2024/04/26 15:57:07;;;;;;;;;;;;;;;;;;;;;
2024/04/26 16:01:09;;;;;;;2.00;1.10;;;;;;;17.04;34.08;99549.61;125867;1302;115051;-64
2024/04/26 16:08:53;;;;;;;;;;;;;;;;;;;;;
2024/04/26 16:12:49;;;;;;;;;;;;;;;;;;;;;
2024/04/26 16:16:41;;;;;;;4.20;1.80;;;;;;;16.76;34.74;99548.39;126849;1284;114824;-65
2024/04/26 16:20:47;;;;;;;1.20;0.80;;;;;;;16.74;34.86;99554.52;127029;1307;114882;-65
2024/04/26 16:24:35;;;;;;;2.00;1.00;;;;;;;16.66;34.83;99555.20;122863;1292;114928;-63
2024/04/26 16:28:22;;;;;;;;;;;;;;;;;;;;;
2024/04/26 16:32:00;;;;;;;;;;;;;;;;;;;;;
2024/04/26 16:36:00;;;;;;;;;;;;;;;;;;;;;
2024/04/26 16:44:03;;;;;;;1.80;1.00;;;;;;;16.20;35.82;99561.70;126593;1302;635939;-64
2024/04/26 16:48:03;;;;;;;;;;;;;;;;;;;;;
2024/04/26 16:52:07;;;;;;;2.00;1.00;;;;;;;16.00;36.01;99567.48;128941;1275;116409;-64
2024/04/26 16:56:02;;;;;;;1.80;1.10;;;;;;;15.92;36.22;99565.83;127438;1287;114859;-63
2024/04/26 17:00:08;;;;;;;1.60;1.30;;;;;;;15.84;36.31;99568.09;123046;1292;115181;-63
2024/04/26 17:04:13;;;;;;;;;;;;;;;;;;;;;
2024/04/26 17:08:16;;;;;;;2.20;1.40;;;;;;;15.69;36.81;99571.85;125313;1304;115004;-64
2024/04/26 17:16:34;;;;;;;;;;;;;;;;;;;;;
2024/04/26 17:20:30;;;;;;;4.10;1.10;;;;;;;15.42;37.20;99579.23;128294;1279;128561;-64
2024/04/26 17:24:27;;;;;;;2.00;1.40;;;;;;;15.32;37.57;99582.88;127195;1284;114723;-64
2024/04/26 17:28:29;;;;;;;;;;;;;;;;;;;;;
2024/04/26 17:32:27;;;;;;;2.50;1.80;;;;;;;15.15;37.69;99585.02;125806;1296;114994;-64
2024/04/26 17:36:28;;;;;;;3.80;2.10;;;;;;;15.05;37.79;99588.30;125196;1307;114890;-64
2024/04/26 17:40:32;;;;;;;2.40;1.40;;;;;;;14.95;38.07;99590.02;123712;1335;115019;-64
2024/04/26 17:44:19;;;;;;;;;;;;;;;;;;;;;
2024/04/26 17:52:01;;;;;;;;;;;;;;;;;;;;;
2024/04/26 17:55:48;;;;;;;4.60;2.40;;;;;;;14.56;39.01;99594.04;129503;1266;127533;-63
2024/04/26 17:59:24;;;;;;;;;;;;;;;;;;;;;
2024/04/26 18:03:17;;;;;;;5.90;2.30;;;;;;;14.34;39.32;99603.33;128779;1276;114922;-64
2024/04/26 18:07:12;;;;;;;;;;;;;;;;;;;;;
2024/04/26 18:11:17;;;;;;;;;;;;;;;;;;;;;
2024/04/26 18:15:19;;;;;;;3.80;2.50;;;;;;;14.01;40.19;99615.14;125838;1316;114861;-64
2024/04/26 18:19:15;;;;;;;5.70;2.50;;;;;;;13.85;40.32;99614.88;124756;1313;128811;-63
2024/04/26 18:23:08;;;;;;;4.30;2.70;;;;;;;13.71;40.68;99623.81;123874;1334;114932;-63
2024/04/26 18:27:25;;;;;;;4.80;3.20;;;;;;;13.58;40.96;99629.80;126415;1295;635845;-64
2024/04/26 18:31:03;;;;;;;4.50;2.60;;;;;;;13.40;41.28;99630.48;128075;1292;128960;-64
2024/04/26 18:34:54;;;;;;;4.70;2.80;;;;;;;13.26;41.57;99634.55;128531;1277;114838;-64
2024/04/26 18:38:47;;;;;;;;;;;;;;;;;;;;;
2024/04/26 18:42:42;;;;;;;;;;;;;;;;;;;;;
2024/04/26 18:46:51;;;;;;;5.80;3.30;;;;;;;12.86;42.22;99645.95;127239;1308;114936;-63
2024/04/26 18:50:42;;;;;;;4.00;2.30;;;;;;;12.71;42.59;99653.27;126538;1295;115070;-64
2024/04/26 18:54:23;;;;;;;4.00;2.30;;;;;;;12.55;42.68;99653.27;125745;1301;129771;-63
2024/04/26 18:58:15;;;;;;;;;;;;;;;;;;;;;
2024/04/26 19:01:58;;;;;;;4.40;3.00;;;;;;;12.28;43.32;99664.02;125456;1315;115373;-63
2024/04/26 19:05:42;;;;;;;;;;;;;;;;;;;;;
2024/04/26 19:09:26;;;;;;;;;;;;;;;;;;;;;
2024/04/26 19:12:54;;;;;;;5.40;3.40;;;;;;;11.88;44.15;99671.48;124649;1310;128820;-64
2024/04/26 19:16:38;;;;;;;5.60;4.40;;;;;;;11.77;44.25;99673.39;124834;1307;114943;-63
2024/04/26 19:24:43;;;;;;;6.40;4.00;;;;;;;11.57;45.00;99674.46;126465;1294;636439;-64
2024/04/26 19:28:33;;;;;;;;;;;;;;;;;;;;;
2024/04/26 19:32:11;;;;;;;9.50;5.70;;;;;;;11.38;45.38;99675.16;132265;1276;113241;-62
2024/04/26 19:40:08;;;;;;;6.50;3.70;;;;;;;11.27;46.08;99680.69;126472;1295;112766;-62
2024/04/26 19:43:50;;;;;;;4.90;3.60;;;;;;;11.21;46.75;99683.35;129780;1301;112681;-62
2024/04/26 19:56:10;;;;;;;6.40;3.50;;;;;;;11.17;46.72;99680.77;125504;1310;638584;-63
2024/04/26 19:59:23;;;;;;;5.90;3.80;;;;;;;11.04;47.53;99685.30;127433;1281;114838;-64
2024/04/26 20:03:27;;;;;;;6.50;4.50;;;;;;;11.00;47.61;99688.06;127166;1292;114965;-62
2024/04/26 20:07:17;;;;;;;;;;;;;;;;;;;;;
2024/04/26 20:11:11;;;;;;;5.10;4.00;;;;;;;10.97;48.07;99696.11;124964;1324;114836;-61
2024/04/26 20:14:54;;;;;;;;;;;;;;;;;;;;;
2024/04/26 20:18:55;;;;;;;;;;;;;;;;;;;;;
2024/04/26 20:23:17;;;;;;;8.80;4.00;;;;;;;10.95;48.78;99695.83;126527;1300;635121;-64
2024/04/26 20:27:19;;;;;;;7.10;3.50;;;;;;;10.86;49.22;99701.04;128078;1281;128694;-62
2024/04/26 20:31:16;;;;;;;;;;;;;;;;;;;;;
2024/04/26 20:39:40;;;;;;;10.50;3.70;;;;;;;10.66;50.04;99710.63;126384;1306;636050;-62
2024/04/26 20:43:42;;;;;;;6.20;4.10;;;;;;;10.57;50.26;99716.17;127531;1283;127917;-62
2024/04/26 20:47:38;;;;;;;;;;;;;;;;;;;;;
2024/04/26 20:51:36;;;;;;;;;;;;;;;;;;;;;
2024/04/26 20:55:38;;;;;;;9.20;4.60;;;;;;;10.34;50.59;99718.17;125578;1320;115026;-62
2024/04/26 21:03:52;;;;;;;6.30;4.10;;;;;;;10.11;51.45;99734.80;126106;1297;636389;-60
2024/04/26 21:07:55;;;;;;;7.70;4.60;;;;;;;9.97;51.65;99741.30;127871;1278;128842;-63
2024/04/26 21:11:58;;;;;;;6.90;3.30;;;;;;;9.86;51.89;99743.34;126496;1289;114818;-63
2024/04/26 21:15:37;;;;;;;;;;;;;;;;;;;;;
2024/04/26 21:19:39;;;;;;;6.90;3.90;;;;;;;9.66;52.55;99747.98;124522;1312;115783;-61
2024/04/26 21:27:54;;;;;;;;;;;;;;;;;;;;;
2024/04/26 21:31:19;;;;;;;7.20;3.50;;;;;;;9.44;53.37;99749.73;128362;1278;128967;-63
2024/04/26 21:39:22;;;;;;;;;;;;;;;;;;;;;
2024/04/26 21:43:25;;;;;;;5.70;3.70;;;;;;;9.23;53.85;99754.93;122098;1296;115039;-63
2024/04/26 21:47:17;;;;;;;;;;;;;;;;;;;;;
2024/04/26 21:51:37;;;;;;;7.50;4.50;;;;;;;9.12;54.67;99757.84;126393;1298;636025;-62
2024/04/26 21:55:41;;;;;;;6.70;4.30;;;;;;;9.00;54.77;99759.50;127973;1292;128698;-62
2024/04/26 21:59:45;;;;;;;5.30;3.60;;;;;;;8.92;54.94;99761.86;126418;1312;114862;-62
2024/04/26 22:03:46;;;;;;;6.90;3.90;;;;;;;8.84;55.01;99769.40;125100;1321;352428;-61
2024/04/26 22:11:43;;;;;;;10.60;4.10;;;;;;;8.69;55.21;99778.90;126302;1295;636024;-61
2024/04/26 22:15:10;;;;;;;6.20;4.20;;;;;;;8.60;55.64;99780.60;128954;1274;128594;-62
2024/04/26 22:23:14;;;;;;;7.30;4.30;;;;;;;8.46;56.13;99786.58;128878;1289;115268;-63
2024/04/26 22:27:16;;;;;;;8.60;5.10;;;;;;;8.37;56.66;99789.52;123727;1284;114957;-62
2024/04/26 22:31:02;;;;;;;;;;;;;;;;;;;;;
2024/04/26 22:35:04;;;;;;;9.10;5.80;;;;;;;8.16;56.76;99793.70;125665;1302;114921;-61
2024/04/26 22:39:02;;;;;;;;;;;;;;;;;;;;;
2024/04/26 22:42:49;;;;;;;;;;;;;;;;;;;;;
2024/04/26 22:46:37;;;;;;;;;;;;;;;;;;;;;
2024/04/26 22:50:58;;;;;;;7.90;4.70;;;;;;;7.77;57.46;99795.67;126052;1308;636016;-62
2024/04/26 22:55:01;;;;;;;10.00;5.60;;;;;;;7.63;57.51;99792.05;127259;1285;128754;-62
2024/04/26 22:59:00;;;;;;;;;;;;;;;;;;;;;
2024/04/26 23:06:58;;;;;;;;;;;;;;;;;;;;;
2024/04/26 23:11:19;;;;;;;9.20;6.70;;;;;;;7.31;59.31;99791.36;126363;1305;636437;-61
2024/04/26 23:15:10;;;;;;;;;;;;;;;;;;;;;
2024/04/26 23:19:20;;;;;;;9.30;6.50;;;;;;;7.17;59.92;99795.88;127216;1288;114791;-61
2024/04/26 23:23:19;;;;;;;8.90;6.50;;;;;;;7.09;60.09;99802.78;121995;1310;5391024;-62
2024/04/26 23:31:41;;;;;;;10.80;7.20;;;;;;;6.94;60.54;99812.86;126401;1292;636534;-60
2024/04/26 23:35:44;;;;;;;10.40;6.60;;;;;;;6.81;60.87;99814.43;127590;1283;128539;-62
2024/04/26 23:39:38;;;;;;;;;;;;;;;;;;;;;
2024/04/26 23:43:48;;;;;;;11.80;7.80;;;;;;;6.65;61.65;99815.81;121814;1299;5413380;-61
2024/04/26 23:47:41;;;;;;;13.30;8.50;;;;;;;6.59;61.87;99814.85;124759;1318;114976;-61
2024/04/26 23:51:41;;;;;;;13.10;9.30;;;;;;;6.52;62.03;99815.45;124545;1323;114863;-61
2024/04/26 23:59:58;;;;;;;15.10;10.00;;;;;;;6.41;62.63;99811.13;126112;1292;637106;-62
